sensor_id;sensor_type;location;lat;lon;timestamp;pressure;altitude;pressure_sealevel;temperature;humidity
10587;BME280;5341;47.606;7.576;2023-05-23T00:00:20;98629.13;;;23.64;51.18
10587;BME280;5341;47.606;7.576;2023-05-23T00:02:48;98636.75;;;23.62;51.17
10587;BME280;5341;47.606;7.576;2023-05-23T00:05:16;98630.75;;;23.60;51.25
10587;BME280;5341;47.606;7.576;2023-05-23T00:07:44;98631.03;;;23.58;51.37
10587;BME280;5341;47.606;7.576;2023-05-23T00:10:12;98628.81;;;23.55;51.17
10587;BME280;5341;47.606;7.576;2023-05-23T00:12:39;98636.47;;;23.53;51.20
10587;BME280;5341;47.606;7.576;2023-05-23T00:15:08;98644.09;;;23.51;51.19
10587;BME280;5341;47.606;7.576;2023-05-23T00:17:37;98639.97;;;23.49;51.16
10587;BME280;5341;47.606;7.576;2023-05-23T00:20:05;98643.25;;;23.46;51.34
10587;BME280;5341;47.606;7.576;2023-05-23T00:22:34;98645.44;;;23.44;51.39
10587;BME280;5341;47.606;7.576;2023-05-23T00:25:07;98642.16;;;23.42;51.34
10587;BME280;5341;47.606;7.576;2023-05-23T00:27:34;98648.97;;;23.39;51.31
10587;BME280;5341;47.606;7.576;2023-05-23T00:30:02;98640.22;;;23.37;51.28
10587;BME280;5341;47.606;7.576;2023-05-23T00:32:29;98634.22;;;23.35;51.28
10587;BME280;5341;47.606;7.576;2023-05-23T00:34:58;98632.84;;;23.32;51.35
10587;BME280;5341;47.606;7.576;2023-05-23T00:37:26;98642.13;;;23.31;51.47
10587;BME280;5341;47.606;7.576;2023-05-23T00:39:55;98642.38;;;23.30;51.40
10587;BME280;5341;47.606;7.576;2023-05-23T00:42:23;98640.19;;;23.27;51.45
10587;BME280;5341;47.606;7.576;2023-05-23T00:44:51;98635.00;;;23.25;51.40
10587;BME280;5341;47.606;7.576;2023-05-23T00:47:19;98632.78;;;23.22;51.38
10587;BME280;5341;47.606;7.576;2023-05-23T00:49:47;98634.16;;;23.20;51.32
10587;BME280;5341;47.606;7.576;2023-05-23T00:52:17;98630.06;;;23.17;51.25
10587;BME280;5341;47.606;7.576;2023-05-23T00:54:45;98635.78;;;23.16;51.28
10587;BME280;5341;47.606;7.576;2023-05-23T00:57:14;98637.94;;;23.14;51.30
10587;BME280;5341;47.606;7.576;2023-05-23T00:59:42;98640.94;;;23.12;51.31
10587;BME280;5341;47.606;7.576;2023-05-23T01:02:11;98640.41;;;23.10;51.50
10587;BME280;5341;47.606;7.576;2023-05-23T01:04:41;98642.84;;;23.06;51.56
10587;BME280;5341;47.606;7.576;2023-05-23T01:07:09;98642.28;;;23.04;51.33
10587;BME280;5341;47.606;7.576;2023-05-23T01:09:38;98640.91;;;23.02;51.48
10587;BME280;5341;47.606;7.576;2023-05-23T01:12:16;98647.72;;;22.99;51.55
10587;BME280;5341;47.606;7.576;2023-05-23T01:14:55;98644.44;;;22.97;51.42
10587;BME280;5341;47.606;7.576;2023-05-23T01:17:42;98657.78;;;22.94;51.50
10587;BME280;5341;47.606;7.576;2023-05-23T01:20:15;98652.06;;;22.90;51.39
10587;BME280;5341;47.606;7.576;2023-05-23T01:23:16;98637.00;;;22.88;51.63
10587;BME280;5341;47.606;7.576;2023-05-23T01:26:03;98646.56;;;22.85;51.55
10587;BME280;5341;47.606;7.576;2023-05-23T01:28:44;98645.16;;;22.83;51.64
10587;BME280;5341;47.606;7.576;2023-05-23T01:31:12;98650.06;;;22.80;51.47
10587;BME280;5341;47.606;7.576;2023-05-23T01:33:42;98651.13;;;22.79;51.44
10587;BME280;5341;47.606;7.576;2023-05-23T01:36:12;98657.69;;;22.78;51.41
10587;BME280;5341;47.606;7.576;2023-05-23T01:38:41;98653.28;;;22.77;51.53
10587;BME280;5341;47.606;7.576;2023-05-23T01:41:08;98651.09;;;22.74;51.54
10587;BME280;5341;47.606;7.576;2023-05-23T01:43:38;98648.63;;;22.73;51.65
10587;BME280;5341;47.606;7.576;2023-05-23T01:46:07;98650.81;;;22.71;51.72
10587;BME280;5341;47.606;7.576;2023-05-23T01:48:36;98651.88;;;22.70;51.47
10587;BME280;5341;47.606;7.576;2023-05-23T01:51:05;98660.34;;;22.68;51.48
10587;BME280;5341;47.606;7.576;2023-05-23T01:53:34;98657.06;;;22.66;51.60
10587;BME280;5341;47.606;7.576;2023-05-23T01:56:03;98658.13;;;22.65;51.52
10587;BME280;5341;47.606;7.576;2023-05-23T01:58:32;98666.56;;;22.64;51.71
10587;BME280;5341;47.606;7.576;2023-05-23T02:01:02;98659.47;;;22.63;51.49
10587;BME280;5341;47.606;7.576;2023-05-23T02:03:29;98659.75;;;22.61;51.51
10587;BME280;5341;47.606;7.576;2023-05-23T02:05:57;98662.72;;;22.60;51.58
10587;BME280;5341;47.606;7.576;2023-05-23T02:08:26;98673.63;;;22.60;51.52
10587;BME280;5341;47.606;7.576;2023-05-23T02:10:54;98657.81;;;22.57;51.58
10587;BME280;5341;47.606;7.576;2023-05-23T02:13:22;98670.88;;;22.55;51.75
10587;BME280;5341;47.606;7.576;2023-05-23T02:15:50;98666.75;;;22.52;51.55
10587;BME280;5341;47.606;7.576;2023-05-23T02:18:21;98662.38;;;22.51;51.54
10587;BME280;5341;47.606;7.576;2023-05-23T02:20:51;98675.47;;;22.49;51.73
10587;BME280;5341;47.606;7.576;2023-05-23T02:23:19;98676.00;;;22.46;51.72
10587;BME280;5341;47.606;7.576;2023-05-23T02:25:46;98672.72;;;22.44;51.76
10587;BME280;5341;47.606;7.576;2023-05-23T02:28:13;98671.88;;;22.43;51.84
10587;BME280;5341;47.606;7.576;2023-05-23T02:30:41;98678.66;;;22.41;51.83
10587;BME280;5341;47.606;7.576;2023-05-23T02:33:09;98679.75;;;22.40;51.77
10587;BME280;5341;47.606;7.576;2023-05-23T02:35:38;98689.00;;;22.39;51.75
10587;BME280;5341;47.606;7.576;2023-05-23T02:38:06;98681.91;;;22.38;51.83
10587;BME280;5341;47.606;7.576;2023-05-23T02:40:33;98671.28;;;22.36;51.78
10587;BME280;5341;47.606;7.576;2023-05-23T02:43:00;98683.25;;;22.35;51.76
10587;BME280;5341;47.606;7.576;2023-05-23T02:45:29;98674.53;;;22.33;51.87
10587;BME280;5341;47.606;7.576;2023-05-23T02:47:58;98679.16;;;22.33;51.85
10587;BME280;5341;47.606;7.576;2023-05-23T02:50:25;98673.97;;;22.31;51.81
10587;BME280;5341;47.606;7.576;2023-05-23T02:52:55;98673.97;;;22.31;51.93
10587;BME280;5341;47.606;7.576;2023-05-23T02:55:23;98666.31;;;22.28;51.80
10587;BME280;5341;47.606;7.576;2023-05-23T02:57:50;98671.19;;;22.26;51.81
10587;BME280;5341;47.606;7.576;2023-05-23T03:00:18;98671.47;;;22.25;51.77
10587;BME280;5341;47.606;7.576;2023-05-23T03:02:50;98671.47;;;22.25;51.84
10587;BME280;5341;47.606;7.576;2023-05-23T03:05:17;98678.81;;;22.24;51.85
10587;BME280;5341;47.606;7.576;2023-05-23T03:07:45;98672.00;;;22.21;51.95
10587;BME280;5341;47.606;7.576;2023-05-23T03:10:14;98671.16;;;22.21;51.84
10587;BME280;5341;47.606;7.576;2023-05-23T03:12:43;98676.88;;;22.19;51.99
10587;BME280;5341;47.606;7.576;2023-05-23T03:15:11;98671.69;;;22.18;51.91
10587;BME280;5341;47.606;7.576;2023-05-23T03:17:41;98666.47;;;22.16;51.88
10587;BME280;5341;47.606;7.576;2023-05-23T03:20:10;98679.28;;;22.16;51.93
10587;BME280;5341;47.606;7.576;2023-05-23T03:22:38;98674.09;;;22.14;51.82
10587;BME280;5341;47.606;7.576;2023-05-23T03:25:08;98673.28;;;22.14;51.90
10587;BME280;5341;47.606;7.576;2023-05-23T03:27:37;98677.09;;;22.13;51.79
10587;BME280;5341;47.606;7.576;2023-05-23T03:30:06;98681.97;;;22.11;51.82
10587;BME280;5341;47.606;7.576;2023-05-23T03:32:34;98674.31;;;22.08;51.94
10587;BME280;5341;47.606;7.576;2023-05-23T03:35:02;98687.13;;;22.07;51.85
10587;BME280;5341;47.606;7.576;2023-05-23T03:37:29;98683.81;;;22.05;51.99
10587;BME280;5341;47.606;7.576;2023-05-23T03:39:57;98674.78;;;22.05;51.96
10587;BME280;5341;47.606;7.576;2023-05-23T03:42:24;98687.84;;;22.03;51.80
10587;BME280;5341;47.606;7.576;2023-05-23T03:44:53;98689.75;;;22.02;52.01
10587;BME280;5341;47.606;7.576;2023-05-23T03:47:21;98698.19;;;22.01;52.02
10587;BME280;5341;47.606;7.576;2023-05-23T03:49:49;98690.28;;;21.99;51.97
10587;BME280;5341;47.606;7.576;2023-05-23T03:52:17;98687.81;;;21.98;51.94
10587;BME280;5341;47.606;7.576;2023-05-23T03:54:44;98697.06;;;21.97;51.92
10587;BME280;5341;47.606;7.576;2023-05-23T03:57:12;98696.25;;;21.96;51.89
10587;BME280;5341;47.606;7.576;2023-05-23T03:59:40;98695.69;;;21.94;51.95
10587;BME280;5341;47.606;7.576;2023-05-23T04:02:11;98697.81;;;21.92;51.95
10587;BME280;5341;47.606;7.576;2023-05-23T04:04:39;98696.19;;;21.91;51.92
10587;BME280;5341;47.606;7.576;2023-05-23T04:07:06;98698.06;;;21.90;51.79
10587;BME280;5341;47.606;7.576;2023-05-23T04:09:37;98699.16;;;21.89;51.86
10587;BME280;5341;47.606;7.576;2023-05-23T04:12:07;98710.31;;;21.88;51.99
10587;BME280;5341;47.606;7.576;2023-05-23T04:14:35;98710.56;;;21.86;51.96
10587;BME280;5341;47.606;7.576;2023-05-23T04:17:05;98713.56;;;21.85;52.20
10587;BME280;5341;47.606;7.576;2023-05-23T04:19:37;98717.34;;;21.84;52.10
10587;BME280;5341;47.606;7.576;2023-05-23T04:22:04;98722.81;;;21.84;52.09
10587;BME280;5341;47.606;7.576;2023-05-23T04:24:32;98714.06;;;21.82;51.93
10587;BME280;5341;47.606;7.576;2023-05-23T04:26:59;98713.25;;;21.81;52.08
10587;BME280;5341;47.606;7.576;2023-05-23T04:29:27;98712.44;;;21.81;52.07
10587;BME280;5341;47.606;7.576;2023-05-23T04:31:56;98713.25;;;21.81;51.94
10587;BME280;5341;47.606;7.576;2023-05-23T04:34:24;98714.31;;;21.80;52.09
10587;BME280;5341;47.606;7.576;2023-05-23T04:36:54;98723.56;;;21.79;52.10
10587;BME280;5341;47.606;7.576;2023-05-23T04:39:22;98726.28;;;21.79;51.90
10587;BME280;5341;47.606;7.576;2023-05-23T04:42:12;98730.91;;;21.79;52.13
10587;BME280;5341;47.606;7.576;2023-05-23T04:44:48;98724.63;;;21.78;52.12
10587;BME280;5341;47.606;7.576;2023-05-23T04:47:21;98730.34;;;21.77;52.21
10587;BME280;5341;47.606;7.576;2023-05-23T04:50:05;98733.88;;;21.77;52.22
10587;BME280;5341;47.606;7.576;2023-05-23T04:52:34;98731.41;;;21.76;52.24
10587;BME280;5341;47.606;7.576;2023-05-23T04:55:02;98737.69;;;21.76;52.34
10587;BME280;5341;47.606;7.576;2023-05-23T04:57:31;98742.31;;;21.76;52.23
10587;BME280;5341;47.606;7.576;2023-05-23T05:00:00;98745.03;;;21.76;52.34
10587;BME280;5341;47.606;7.576;2023-05-23T05:02:32;98754.56;;;21.78;52.30
10587;BME280;5341;47.606;7.576;2023-05-23T05:05:00;98743.69;;;21.78;52.43
10587;BME280;5341;47.606;7.576;2023-05-23T05:07:27;98747.22;;;21.79;52.31
10587;BME280;5341;47.606;7.576;2023-05-23T05:09:56;98737.97;;;21.80;52.39
10587;BME280;5341;47.606;7.576;2023-05-23T05:12:24;98740.72;;;21.80;52.29
10587;BME280;5341;47.606;7.576;2023-05-23T05:14:51;98736.94;;;21.81;52.34
10587;BME280;5341;47.606;7.576;2023-05-23T05:17:18;98730.41;;;21.82;52.38
10587;BME280;5341;47.606;7.576;2023-05-23T05:19:59;98732.88;;;21.83;52.42
10587;BME280;5341;47.606;7.576;2023-05-23T05:22:27;98728.50;;;21.82;52.52
10587;BME280;5341;47.606;7.576;2023-05-23T05:24:56;98725.53;;;21.84;52.58
10587;BME280;5341;47.606;7.576;2023-05-23T05:27:24;98735.34;;;21.85;52.68
10587;BME280;5341;47.606;7.576;2023-05-23T05:29:51;98736.97;;;21.86;52.84
10587;BME280;5341;47.606;7.576;2023-05-23T05:32:22;98740.53;;;21.86;52.65
10587;BME280;5341;47.606;7.576;2023-05-23T05:34:49;98742.16;;;21.87;52.87
10587;BME280;5341;47.606;7.576;2023-05-23T05:37:17;98742.16;;;21.87;53.09
10587;BME280;5341;47.606;7.576;2023-05-23T05:39:46;98747.59;;;21.87;53.46
10587;BME280;5341;47.606;7.576;2023-05-23T05:42:16;98752.22;;;21.87;53.59
10587;BME280;5341;47.606;7.576;2023-05-23T05:44:47;98747.59;;;21.87;53.56
10587;BME280;5341;47.606;7.576;2023-05-23T05:47:15;98746.78;;;21.87;53.60
10587;BME280;5341;47.606;7.576;2023-05-23T05:49:42;98742.97;;;21.88;53.75
10587;BME280;5341;47.606;7.576;2023-05-23T05:52:10;98742.97;;;21.88;53.91
10587;BME280;5341;47.606;7.576;2023-05-23T05:54:39;98743.53;;;21.90;53.75
10587;BME280;5341;47.606;7.576;2023-05-23T05:57:07;98749.81;;;21.90;53.81
10587;BME280;5341;47.606;7.576;2023-05-23T05:59:36;98749.56;;;21.92;53.80
10587;BME280;5341;47.606;7.576;2023-05-23T06:02:03;98754.25;;;21.97;53.94
10587;BME280;5341;47.606;7.576;2023-05-23T06:04:31;98756.44;;;22.00;54.08
10587;BME280;5341;47.606;7.576;2023-05-23T06:06:58;98758.66;;;22.03;54.13
10587;BME280;5341;47.606;7.576;2023-05-23T06:09:26;98757.34;;;22.05;54.11
10587;BME280;5341;47.606;7.576;2023-05-23T06:11:53;98762.31;;;22.08;54.22
10587;BME280;5341;47.606;7.576;2023-05-23T06:14:21;98764.50;;;22.11;54.44
10587;BME280;5341;47.606;7.576;2023-05-23T06:16:49;98763.16;;;22.14;54.55
10587;BME280;5341;47.606;7.576;2023-05-23T06:19:17;98761.25;;;22.14;54.75
10587;BME280;5341;47.606;7.576;2023-05-23T06:21:45;98763.50;;;22.17;55.13
10587;BME280;5341;47.606;7.576;2023-05-23T06:24:13;98766.78;;;22.19;55.28
10587;BME280;5341;47.606;7.576;2023-05-23T06:26:40;98769.50;;;22.19;55.34
10587;BME280;5341;47.606;7.576;2023-05-23T06:29:08;98764.88;;;22.20;56.10
10587;BME280;5341;47.606;7.576;2023-05-23T06:31:35;98765.13;;;22.18;55.93
10587;BME280;5341;47.606;7.576;2023-05-23T06:34:05;98763.16;;;22.14;56.45
10587;BME280;5341;47.606;7.576;2023-05-23T06:36:33;98764.47;;;22.06;57.35
10587;BME280;5341;47.606;7.576;2023-05-23T06:39:00;98768.00;;;22.07;56.86
10587;BME280;5341;47.606;7.576;2023-05-23T06:41:28;98773.22;;;22.13;56.72
10587;BME280;5341;47.606;7.576;2023-05-23T06:43:56;98772.16;;;22.14;57.36
10587;BME280;5341;47.606;7.576;2023-05-23T06:46:24;98764.50;;;22.11;57.42
10587;BME280;5341;47.606;7.576;2023-05-23T06:48:52;98772.41;;;22.13;57.66
10587;BME280;5341;47.606;7.576;2023-05-23T06:51:21;98765.41;;;22.17;57.84
10587;BME280;5341;47.606;7.576;2023-05-23T06:53:51;98772.22;;;22.19;57.93
10587;BME280;5341;47.606;7.576;2023-05-23T06:56:21;98775.25;;;22.23;57.68
10587;BME280;5341;47.606;7.576;2023-05-23T06:58:54;98772.81;;;22.27;58.69
10587;BME280;5341;47.606;7.576;2023-05-23T07:01:22;98775.25;;;22.23;58.41
10587;BME280;5341;47.606;7.576;2023-05-23T07:03:50;98784.28;;;22.29;58.08
10587;BME280;5341;47.606;7.576;2023-05-23T07:06:18;98786.81;;;22.35;58.67
10587;BME280;5341;47.606;7.576;2023-05-23T07:08:52;98780.25;;;22.31;58.67
10587;BME280;5341;47.606;7.576;2023-05-23T07:11:22;98783.53;;;22.33;58.63
10587;BME280;5341;47.606;7.576;2023-05-23T07:13:58;98786.25;;;22.33;59.01
10587;BME280;5341;47.606;7.576;2023-05-23T07:16:38;98784.09;;;22.35;58.54
10587;BME280;5341;47.606;7.576;2023-05-23T07:19:07;98790.91;;;22.38;58.63
10587;BME280;5341;47.606;7.576;2023-05-23T07:21:43;98797.25;;;22.43;58.26
10587;BME280;5341;47.606;7.576;2023-05-23T07:24:15;98799.19;;;22.48;58.44
10587;BME280;5341;47.606;7.576;2023-05-23T07:26:46;98797.53;;;22.47;58.50
10587;BME280;5341;47.606;7.576;2023-05-23T07:29:14;98798.66;;;22.51;58.16
10587;BME280;5341;47.606;7.576;2023-05-23T07:31:50;98800.38;;;22.57;57.92
10587;BME280;5341;47.606;7.576;2023-05-23T07:34:19;98802.56;;;22.60;58.37
10587;BME280;5341;47.606;7.576;2023-05-23T07:36:52;98800.41;;;22.62;58.11
10587;BME280;5341;47.606;7.576;2023-05-23T07:39:24;98802.38;;;22.67;58.26
10587;BME280;5341;47.606;7.576;2023-05-23T07:41:54;98796.13;;;22.71;58.50
10587;BME280;5341;47.606;7.576;2023-05-23T07:44:21;98808.41;;;22.74;59.37
10587;BME280;5341;47.606;7.576;2023-05-23T07:46:50;98802.44;;;22.77;58.52
10587;BME280;5341;47.606;7.576;2023-05-23T07:49:18;98803.00;;;22.79;58.80
10587;BME280;5341;47.606;7.576;2023-05-23T07:51:47;98808.47;;;22.79;58.63
10587;BME280;5341;47.606;7.576;2023-05-23T07:54:22;98805.22;;;22.82;58.42
10587;BME280;5341;47.606;7.576;2023-05-23T07:57:09;98796.25;;;22.87;59.38
10587;BME280;5341;47.606;7.576;2023-05-23T07:59:39;98799.56;;;22.89;59.24
10587;BME280;5341;47.606;7.576;2023-05-23T08:02:10;98802.34;;;22.94;59.60
10587;BME280;5341;47.606;7.576;2023-05-23T08:04:40;98803.44;;;22.98;59.54
10587;BME280;5341;47.606;7.576;2023-05-23T08:07:08;98796.13;;;23.03;59.68
10587;BME280;5341;47.606;7.576;2023-05-23T08:09:49;98794.50;;;23.07;59.39
10587;BME280;5341;47.606;7.576;2023-05-23T08:12:20;98795.34;;;23.13;59.27
10587;BME280;5341;47.606;7.576;2023-05-23T08:14:53;98795.41;;;23.18;59.47
10587;BME280;5341;47.606;7.576;2023-05-23T08:17:27;98794.88;;;23.21;59.50
10587;BME280;5341;47.606;7.576;2023-05-23T08:19:56;98801.16;;;23.22;59.29
10587;BME280;5341;47.606;7.576;2023-05-23T08:22:25;98798.69;;;23.20;59.22
10587;BME280;5341;47.606;7.576;2023-05-23T08:24:53;98800.31;;;23.21;59.03
10587;BME280;5341;47.606;7.576;2023-05-23T08:27:22;98806.88;;;23.25;59.30
10587;BME280;5341;47.606;7.576;2023-05-23T08:29:54;98802.56;;;23.29;59.39
10587;BME280;5341;47.606;7.576;2023-05-23T08:32:22;98808.03;;;23.34;59.41
10587;BME280;5341;47.606;7.576;2023-05-23T08:34:50;98814.63;;;23.38;59.30
10587;BME280;5341;47.606;7.576;2023-05-23T08:37:18;98820.66;;;23.46;59.17
10587;BME280;5341;47.606;7.576;2023-05-23T08:39:45;98818.50;;;23.48;59.01
10587;BME280;5341;47.606;7.576;2023-05-23T08:42:47;98814.16;;;23.52;58.93
10587;BME280;5341;47.606;7.576;2023-05-23T08:45:15;98820.72;;;23.56;58.93
10587;BME280;5341;47.606;7.576;2023-05-23T08:47:44;98809.53;;;23.57;58.54
10587;BME280;5341;47.606;7.576;2023-05-23T08:50:14;98818.31;;;23.59;58.61
10587;BME280;5341;47.606;7.576;2023-05-23T08:52:48;98816.72;;;23.63;58.32
10587;BME280;5341;47.606;7.576;2023-05-23T08:55:16;98810.94;;;23.60;57.91
10587;BME280;5341;47.606;7.576;2023-05-23T08:57:46;98819.41;;;23.58;57.95
10587;BME280;5341;47.606;7.576;2023-05-23T09:00:33;98822.69;;;23.60;58.05
10587;BME280;5341;47.606;7.576;2023-05-23T09:03:01;98809.06;;;23.65;58.21
10587;BME280;5341;47.606;7.576;2023-05-23T09:05:49;98822.19;;;23.74;58.24
10587;BME280;5341;47.606;7.576;2023-05-23T09:08:18;98817.06;;;23.82;57.97
10587;BME280;5341;47.606;7.576;2023-05-23T09:10:47;98817.09;;;23.87;58.30
10587;BME280;5341;47.606;7.576;2023-05-23T09:13:16;98819.56;;;23.94;58.24
10587;BME280;5341;47.606;7.576;2023-05-23T09:15:56;98820.66;;;23.98;57.82
10587;BME280;5341;47.606;7.576;2023-05-23T09:18:26;98815.50;;;24.02;57.80
10587;BME280;5341;47.606;7.576;2023-05-23T09:20:53;98815.78;;;24.05;57.63
10587;BME280;5341;47.606;7.576;2023-05-23T09:23:20;98810.06;;;24.12;57.59
10587;BME280;5341;47.606;7.576;2023-05-23T09:25:48;98808.69;;;24.19;56.71
10587;BME280;5341;47.606;7.576;2023-05-23T09:28:17;98808.47;;;24.26;56.90
10587;BME280;5341;47.606;7.576;2023-05-23T09:30:44;98806.03;;;24.35;56.47
10587;BME280;5341;47.606;7.576;2023-05-23T09:33:13;98809.88;;;24.44;56.49
10587;BME280;5341;47.606;7.576;2023-05-23T09:35:43;98809.34;;;24.57;56.12
10587;BME280;5341;47.606;7.576;2023-05-23T09:38:13;98809.63;;;24.76;55.84
10587;BME280;5341;47.606;7.576;2023-05-23T09:40:44;98793.47;;;25.00;55.94
10587;BME280;5341;47.606;7.576;2023-05-23T09:43:17;98806.06;;;25.21;55.24
10587;BME280;5341;47.606;7.576;2023-05-23T09:45:52;98804.13;;;25.37;54.41
10587;BME280;5341;47.606;7.576;2023-05-23T09:48:27;98797.81;;;25.36;53.53
10587;BME280;5341;47.606;7.576;2023-05-23T09:50:55;98792.88;;;25.38;54.04
10587;BME280;5341;47.606;7.576;2023-05-23T09:53:23;98790.94;;;25.49;53.82
10587;BME280;5341;47.606;7.576;2023-05-23T09:55:50;98798.84;;;25.56;53.19
10587;BME280;5341;47.606;7.576;2023-05-23T09:58:22;98787.03;;;25.65;53.95
10587;BME280;5341;47.606;7.576;2023-05-23T10:00:50;98793.28;;;25.86;53.25
10587;BME280;5341;47.606;7.576;2023-05-23T10:03:22;98794.56;;;26.04;52.50
10587;BME280;5341;47.606;7.576;2023-05-23T10:05:54;98786.03;;;26.11;52.08
10587;BME280;5341;47.606;7.576;2023-05-23T10:08:26;98791.75;;;26.14;51.11
10587;BME280;5341;47.606;7.576;2023-05-23T10:14:04;98785.56;;;25.98;50.90
10587;BME280;5341;47.606;7.576;2023-05-23T10:16:38;98784.44;;;26.05;51.52
10587;BME280;5341;47.606;7.576;2023-05-23T10:19:12;98787.09;;;26.20;50.64
10587;BME280;5341;47.606;7.576;2023-05-23T10:21:45;98777.69;;;26.36;50.96
10587;BME280;5341;47.606;7.576;2023-05-23T10:24:16;98782.50;;;26.54;49.93
10587;BME280;5341;47.606;7.576;2023-05-23T10:26:45;98777.41;;;26.72;50.12
10587;BME280;5341;47.606;7.576;2023-05-23T10:29:13;98781.41;;;26.84;48.70
10587;BME280;5341;47.606;7.576;2023-05-23T10:31:41;98779.69;;;26.94;48.93
10587;BME280;5341;47.606;7.576;2023-05-23T10:34:14;98776.28;;;27.07;48.60
10587;BME280;5341;47.606;7.576;2023-05-23T10:37:00;98783.63;;;27.17;48.82
10587;BME280;5341;47.606;7.576;2023-05-23T10:39:50;98777.66;;;27.33;48.58
10587;BME280;5341;47.606;7.576;2023-05-23T10:42:30;98780.13;;;27.59;47.78
10587;BME280;5341;47.606;7.576;2023-05-23T10:45:28;98782.13;;;27.77;48.15
10587;BME280;5341;47.606;7.576;2023-05-23T10:47:59;98785.84;;;27.86;46.96
10587;BME280;5341;47.606;7.576;2023-05-23T10:50:30;98781.94;;;27.92;47.10
10587;BME280;5341;47.606;7.576;2023-05-23T10:52:59;98781.19;;;28.06;46.33
10587;BME280;5341;47.606;7.576;2023-05-23T10:55:31;98778.31;;;28.16;46.84
10587;BME280;5341;47.606;7.576;2023-05-23T10:58:14;98784.66;;;28.35;45.84
10587;BME280;5341;47.606;7.576;2023-05-23T11:00:51;98783.16;;;28.43;46.15
10587;BME280;5341;47.606;7.576;2023-05-23T11:03:30;98787.22;;;28.45;45.70
10587;BME280;5341;47.606;7.576;2023-05-23T11:05:58;98778.41;;;28.48;46.18
10587;BME280;5341;47.606;7.576;2023-05-23T11:08:26;98768.94;;;28.54;44.88
10587;BME280;5341;47.606;7.576;2023-05-23T11:10:58;98775.91;;;28.66;44.70
10587;BME280;5341;47.606;7.576;2023-05-23T11:13:54;98780.13;;;28.77;44.59
10587;BME280;5341;47.606;7.576;2023-05-23T11:16:28;98777.44;;;28.91;44.66
10587;BME280;5341;47.606;7.576;2023-05-23T11:19:21;98770.84;;;29.05;42.81
10587;BME280;5341;47.606;7.576;2023-05-23T11:21:53;98780.53;;;29.03;42.44
10587;BME280;5341;47.606;7.576;2023-05-23T11:24:21;98787.78;;;28.99;43.73
10587;BME280;5341;47.606;7.576;2023-05-23T11:26:53;98782.88;;;28.96;43.79
10587;BME280;5341;47.606;7.576;2023-05-23T11:29:26;98785.19;;;28.88;43.12
10587;BME280;5341;47.606;7.576;2023-05-23T11:31:56;98787.41;;;28.86;42.58
10587;BME280;5341;47.606;7.576;2023-05-23T11:34:24;98783.56;;;28.87;43.08
10587;BME280;5341;47.606;7.576;2023-05-23T11:36:53;98783.69;;;28.96;42.81
10587;BME280;5341;47.606;7.576;2023-05-23T11:39:21;98774.22;;;29.02;43.06
10587;BME280;5341;47.606;7.576;2023-05-23T11:41:58;98762.09;;;29.17;42.51
10587;BME280;5341;47.606;7.576;2023-05-23T11:44:26;98767.34;;;29.32;41.39
10587;BME280;5341;47.606;7.576;2023-05-23T11:47:02;98768.66;;;29.35;41.63
10587;BME280;5341;47.606;7.576;2023-05-23T11:49:36;98777.31;;;29.42;41.47
10587;BME280;5341;47.606;7.576;2023-05-23T11:52:05;98769.19;;;29.51;40.70
10587;BME280;5341;47.606;7.576;2023-05-23T11:54:32;98762.34;;;29.62;40.79
10587;BME280;5341;47.606;7.576;2023-05-23T11:57:00;98764.91;;;29.72;41.72
10587;BME280;5341;47.606;7.576;2023-05-23T11:59:28;98772.97;;;29.82;41.34
10587;BME280;5341;47.606;7.576;2023-05-23T12:01:56;98768.44;;;29.86;40.21
10587;BME280;5341;47.606;7.576;2023-05-23T12:04:25;98762.81;;;29.91;40.50
10587;BME280;5341;47.606;7.576;2023-05-23T12:06:53;98765.66;;;30.00;40.26
10587;BME280;5341;47.606;7.576;2023-05-23T12:09:20;98759.78;;;30.07;39.91
10587;BME280;5341;47.606;7.576;2023-05-23T12:11:48;98765.16;;;30.12;40.33
10587;BME280;5341;47.606;7.576;2023-05-23T12:14:16;98763.94;;;30.18;39.73
10587;BME280;5341;47.606;7.576;2023-05-23T12:16:44;98759.41;;;30.22;38.91
10587;BME280;5341;47.606;7.576;2023-05-23T12:19:14;98754.47;;;30.32;37.68
10587;BME280;5341;47.606;7.576;2023-05-23T12:21:46;98749.78;;;30.33;38.22
10587;BME280;5341;47.606;7.576;2023-05-23T12:24:14;98754.84;;;30.40;37.67
10587;BME280;5341;47.606;7.576;2023-05-23T12:26:49;98746.88;;;30.38;37.83
10587;BME280;5341;47.606;7.576;2023-05-23T12:29:18;98743.38;;;30.46;37.39
10587;BME280;5341;47.606;7.576;2023-05-23T12:31:50;98744.19;;;30.47;36.94
10587;BME280;5341;47.606;7.576;2023-05-23T12:34:19;98745.44;;;30.41;36.82
10587;BME280;5341;47.606;7.576;2023-05-23T12:36:49;98749.66;;;30.38;37.37
10587;BME280;5341;47.606;7.576;2023-05-23T12:39:23;98746.88;;;30.38;37.67
10587;BME280;5341;47.606;7.576;2023-05-23T12:41:52;98755.16;;;30.38;37.21
10587;BME280;5341;47.606;7.576;2023-05-23T12:44:21;98751.41;;;30.34;36.87
10587;BME280;5341;47.606;7.576;2023-05-23T12:46:48;98746.06;;;30.38;36.95
10587;BME280;5341;47.606;7.576;2023-05-23T12:49:15;98741.38;;;30.38;37.08
10587;BME280;5341;47.606;7.576;2023-05-23T12:51:43;98732.84;;;30.48;37.22
10587;BME280;5341;47.606;7.576;2023-05-23T12:54:11;98730.97;;;30.57;37.22
10587;BME280;5341;47.606;7.576;2023-05-23T12:56:39;98729.03;;;30.58;37.57
10587;BME280;5341;47.606;7.576;2023-05-23T12:59:06;98728.78;;;30.68;36.37
10587;BME280;5341;47.606;7.576;2023-05-23T13:01:34;98721.97;;;30.66;36.57
10587;BME280;5341;47.606;7.576;2023-05-23T13:04:01;98725.63;;;30.61;36.56
10587;BME280;5341;47.606;7.576;2023-05-23T13:06:29;98726.44;;;30.61;36.55
10587;BME280;5341;47.606;7.576;2023-05-23T13:08:57;98731.16;;;30.61;36.34
10587;BME280;5341;47.606;7.576;2023-05-23T13:11:30;98736.66;;;30.61;36.46
10587;BME280;5341;47.606;7.576;2023-05-23T13:13:57;98726.75;;;30.60;36.01
10587;BME280;5341;47.606;7.576;2023-05-23T13:16:25;98722.38;;;30.59;36.42
10587;BME280;5341;47.606;7.576;2023-05-23T13:18:52;98721.44;;;30.63;36.79
10587;BME280;5341;47.606;7.576;2023-05-23T13:21:19;98728.16;;;30.71;36.62
10587;BME280;5341;47.606;7.576;2023-05-23T13:23:47;98725.94;;;30.82;36.03
10587;BME280;5341;47.606;7.576;2023-05-23T13:26:14;98720.44;;;30.82;36.28
10587;BME280;5341;47.606;7.576;2023-05-23T13:28:43;98729.53;;;30.82;35.82